AirNav   Pilot Hours Calculator
 
 506 users online  

WI79 Town Line Airport
Greenwood, Wisconsin, USA

GOING TO GREENWOOD?


FAA INFORMATION EFFECTIVE 26 JANUARY 2023

Location

FAA Identifier: WI79
Lat/Long: 44-51-09.8760N 090-33-23.4960W
44-51.164600N 090-33.391600W
44.8527433,-90.5565267
(estimated)
Elevation: 1270 ft. / 387 m (estimated)
Variation: 01E (1985)
From city: 4 miles NE of GREENWOOD, WI
Time zone: UTC -6 (UTC -5 during Daylight Saving Time)
Zip code: 54460

Airport Operations

Airport use: Private use. Permission required prior to landing
Activation date: 01/1976
Control tower: no
ARTCC: MINNEAPOLIS CENTER
FSS: GREEN BAY FLIGHT SERVICE STATION
Attendance: 
Wind indicator: yes
Segmented circle: no

Airport Communications

WX AWOS-3 at MDZ (18 nm NE): 119.025 (715-678-6030)

Nearby radio navigation aids

VOR radial/distance  VOR name  Freq  Var
EAUr090/39.3EAU CLAIRE VORTAC113.6504E

Airport Services

Runway Information

Runway 18/36

Dimensions: 2200 x 60 ft. / 671 x 18 m
Surface: turf
RUNWAY 18  RUNWAY 36
Traffic pattern: leftleft

Airport Ownership and Management from official FAA records

Ownership: Privately-owned
Owner: JEFF ECKDAHL
ROUTE 1
OWEN, WI 54460
Manager: Phone 715-229-4479

Airport Operational Statistics

Aircraft based on the field: 1
Single engine airplanes: 1
    

Additional Remarks

FOR CD CTC MINNEAPOLIS ARTCC AT 651-463-5588.

Instrument Procedures

There are no published instrument procedures at WI79.

Some nearby airports with instrument procedures:

KVIQ - Neillsville Municipal Airport (18 nm S)
KMDZ - Taylor County Airport (18 nm NE)
KMFI - Marshfield Municipal Airport (20 nm SE)
KCWA - Central Wisconsin Airport (38 nm E)
KBCK - Black River Falls Area Airport (38 nm S)
 
Loc | Ops | Rwys | IFR | FBO | Links
Com | Nav | Svcs | Stats | Notes
Area around WI79 (Town Line Airport)
 
Road maps at: MapQuest Bing Google
 
Aerial photo
No photo
 
Sectional chart

 
Airport distance calculator
Flying to Town Line Airport? Find the distance to fly.

From to WI79

Sunrise and sunset
Times for 27-Jan-2023
 Local
(UTC-6)
 Zulu
(UTC)
Morning civil twilight06:5712:57
Sunrise07:2813:28
Sunset17:0223:02
Evening civil twilight17:3423:34

Current date and time
Zulu (UTC)  27-Jan-2023 10:29:10
Local (UTC-6)  27-Jan-2023 04:29:10
 
METAR
KMDZ 
19nm NE 
271015Z AUTO 15011G15KT 3/4SM OVC013 M11/M12 A2953 RMK AO2 T11131118 PWINO
KMFI 
21nm SE 
271023Z AUTO 17014KT 2SM -SN BR SCT010 OVC026 M11/M12 A2957 RMK AO2 SNB00 P0000 T11061122
TAF
KCWA 
38nm E 
270520Z 2706/2806 20006KT P6SM SCT012 BKN200 TEMPO 2707/2710 BKN012 FM271000 17010G20KT P6SM -SN SCT015 OVC035 WS020/21040KT TEMPO 2711/2712 3SM -SN OVC025 FM271200 19012G23KT 2SM -SN BKN013 OVC020 WS020/22040KT TEMPO 2712/2716 1SM -SN OVC010 FM271800 24012G22KT P6SM -SHSN OVC018 FM272000 28016G25KT P6SM BKN025 FM280200 29012G20KT P6SM BKN025
KEAU 
39nm W 
270711Z 2707/2806 18010KT P6SM OVC009 FM270900 18015G24KT 1 1/2SM -SN BR OVC015 FM271500 26014G24KT 4SM BLSN BKN015 FM271800 28015G22KT 6SM BLSN OVC018 FM272200 28014G20KT P6SM OVC035 FM280300 30013KT P6SM BKN050
KAUW 
40nm E 
270520Z 2706/2806 20006KT P6SM SCT012 BKN200 TEMPO 2707/2710 BKN012 FM271000 17010G20KT P6SM -SN SCT015 OVC035 WS020/21040KT TEMPO 2711/2712 3SM -SN OVC025 FM271200 19012G23KT 2SM -SN BKN013 OVC020 WS020/22040KT TEMPO 2712/2716 1SM -SN OVC010 FM271800 24012G22KT P6SM -SHSN OVC018 FM272000 28016G25KT P6SM BKN025 FM280200 29012G20KT P6SM BKN025
NOTAMs
Click for the latest NOTAMs
NOTAMs are issued by the DoD/FAA and will open in a separate window not controlled by AirNav.

 

 
 

Would you like to see your business listed on this page?

 If your business provides an interesting product or service to pilots, flight crews, aircraft, or users of the Town Line Airport, you should consider listing it here.  To start the listing process, click on the button below
 
Add a business
 

Other Pages about Town Line Airport

Update a link
 
Copyright © AirNav, LLC. All rights reserved. Privacy Policy  Contact